createdAt,value
2017-06-03T00:00:27.364Z,80
2017-06-03T00:01:28.094Z,81
2017-06-03T00:02:28.823Z,81
2017-06-03T00:03:29.575Z,82
2017-06-03T00:04:30.304Z,82
2017-06-03T00:05:31.280Z,82
2017-06-03T00:06:32.006Z,83
2017-06-03T00:07:32.733Z,83
2017-06-03T00:08:33.461Z,83
2017-06-03T00:09:34.187Z,83
2017-06-03T00:10:35.165Z,83
2017-06-03T00:11:35.894Z,84
2017-06-03T00:12:36.619Z,84
2017-06-03T00:13:37.350Z,85
2017-06-03T00:14:38.100Z,85
2017-06-03T00:15:39.074Z,84
2017-06-03T00:16:39.800Z,84
2017-06-03T00:17:40.528Z,85
2017-06-03T00:18:41.256Z,85
2017-06-03T00:19:41.982Z,85
2017-06-03T00:20:42.962Z,84
2017-06-03T00:21:43.690Z,85
2017-06-03T00:22:44.417Z,85
2017-06-03T00:23:45.143Z,85
2017-06-03T00:24:45.871Z,85
2017-06-03T00:25:46.853Z,85
2017-06-03T00:26:47.598Z,85
2017-06-03T00:27:48.321Z,84
2017-06-03T00:28:49.049Z,83
2017-06-03T00:29:49.775Z,83
2017-06-03T00:30:50.753Z,83
2017-06-03T00:31:51.480Z,84
2017-06-03T00:32:52.205Z,84
2017-06-03T00:33:52.932Z,83
2017-06-03T00:34:53.659Z,83
2017-06-03T00:35:54.637Z,84
2017-06-03T00:36:55.388Z,84
2017-06-03T00:37:56.114Z,84
2017-06-03T00:38:56.839Z,84
2017-06-03T00:39:57.566Z,84
2017-06-03T00:40:58.546Z,84
2017-06-03T00:41:59.274Z,84
2017-06-03T00:43:00.001Z,84
2017-06-03T00:44:00.749Z,84
2017-06-03T00:45:01.452Z,85
2017-06-03T00:46:02.431Z,84
2017-06-03T00:47:03.159Z,84
2017-06-03T00:48:03.885Z,85
2017-06-03T00:49:04.613Z,84
2017-06-03T00:50:05.340Z,85
2017-06-03T00:51:06.319Z,85
2017-06-03T00:52:07.049Z,85
2017-06-03T00:53:07.777Z,85
2017-06-03T00:54:08.501Z,85
2017-06-03T00:55:09.230Z,85
2017-06-03T00:56:10.208Z,84
2017-06-03T00:57:10.938Z,85
2017-06-03T00:58:11.662Z,85
2017-06-03T00:59:12.391Z,85
2017-06-03T01:00:13.118Z,85
2017-06-03T01:01:14.098Z,85
2017-06-03T01:02:14.826Z,85
2017-06-03T01:03:15.551Z,84
2017-06-03T01:04:16.277Z,85
2017-06-03T01:05:17.007Z,85
2017-06-03T01:06:17.986Z,85
2017-06-03T01:07:18.714Z,85
2017-06-03T01:08:19.442Z,85
2017-06-03T01:09:20.170Z,85
2017-06-03T01:10:20.895Z,85
2017-06-03T01:11:21.874Z,86
2017-06-03T01:12:22.601Z,85
2017-06-03T01:13:23.331Z,85
2017-06-03T01:14:24.060Z,85
2017-06-03T01:15:24.787Z,85
2017-06-03T01:16:25.765Z,85
2017-06-03T01:17:26.494Z,85
2017-06-03T01:18:27.219Z,84
2017-06-03T01:19:27.947Z,84
2017-06-03T01:20:28.697Z,84
2017-06-03T01:21:29.675Z,84
2017-06-03T01:22:30.403Z,84
2017-06-03T01:23:31.131Z,84
2017-06-03T01:24:31.858Z,84
2017-06-03T01:25:32.589Z,84
2017-06-03T01:26:33.568Z,84
2017-06-03T01:27:34.292Z,84
2017-06-03T01:28:35.021Z,84
2017-06-03T01:29:35.751Z,84
2017-06-03T01:30:36.479Z,84
2017-06-03T01:31:37.458Z,84
2017-06-03T01:32:38.188Z,84
2017-06-03T01:33:38.915Z,84
2017-06-03T01:34:39.644Z,84
2017-06-03T01:35:40.374Z,84
2017-06-03T01:36:41.353Z,83
2017-06-03T01:37:42.079Z,83
2017-06-03T01:38:42.839Z,84
2017-06-03T01:39:43.562Z,84
2017-06-03T01:40:44.316Z,83
2017-06-03T01:41:45.296Z,84
2017-06-03T01:42:46.024Z,83
2017-06-03T01:43:46.751Z,84
2017-06-03T01:44:47.479Z,83
2017-06-03T01:45:48.209Z,84
2017-06-03T01:46:49.189Z,83
2017-06-03T01:47:49.918Z,84
2017-06-03T01:48:50.670Z,82
2017-06-03T01:49:51.396Z,84
2017-06-03T01:50:52.124Z,84
2017-06-03T01:51:53.102Z,84
2017-06-03T01:52:53.828Z,85
2017-06-03T01:53:54.560Z,85
2017-06-03T01:54:55.283Z,85
2017-06-03T01:55:56.011Z,85
2017-06-03T01:56:56.995Z,85
2017-06-03T01:57:57.721Z,85
2017-06-03T01:58:58.447Z,84
2017-06-03T01:59:59.174Z,84
2017-06-03T02:00:59.904Z,84
2017-06-03T02:02:00.884Z,85
2017-06-03T02:03:01.608Z,85
2017-06-03T02:04:02.335Z,85
2017-06-03T02:05:03.063Z,85
2017-06-03T02:06:03.793Z,84
2017-06-03T02:07:04.821Z,84
2017-06-03T02:08:05.550Z,84
2017-06-03T02:09:06.277Z,84
2017-06-03T02:10:07.010Z,84
2017-06-03T02:11:07.733Z,85
2017-06-03T02:12:08.710Z,85
2017-06-03T02:13:09.438Z,85
2017-06-03T02:14:10.167Z,85
2017-06-03T02:15:10.893Z,85
2017-06-03T02:16:11.620Z,85
2017-06-03T02:17:12.598Z,85
2017-06-03T02:18:13.327Z,85
2017-06-03T02:19:14.053Z,85
2017-06-03T02:20:14.780Z,85
2017-06-03T02:21:15.510Z,86
2017-06-03T02:22:16.496Z,86
2017-06-03T02:23:17.244Z,85
2017-06-03T02:24:17.970Z,85
2017-06-03T02:25:18.701Z,85
2017-06-03T02:26:19.428Z,85
2017-06-03T02:27:20.409Z,85
2017-06-03T02:28:21.135Z,85
2017-06-03T02:29:21.886Z,86
2017-06-03T02:30:22.620Z,85
2017-06-03T02:31:23.347Z,85
2017-06-03T02:32:24.324Z,85
2017-06-03T02:33:25.049Z,85
2017-06-03T02:34:25.779Z,85
2017-06-03T02:35:26.509Z,85
2017-06-03T02:36:27.264Z,85
2017-06-03T02:37:28.241Z,85
2017-06-03T02:38:28.969Z,85
2017-06-03T02:39:29.722Z,85
2017-06-03T02:40:30.449Z,86
2017-06-03T02:41:31.178Z,85
2017-06-03T02:42:32.156Z,85
2017-06-03T02:43:32.886Z,84
2017-06-03T02:44:33.612Z,85
2017-06-03T02:45:34.338Z,85
2017-06-03T02:46:35.091Z,85
2017-06-03T02:47:36.121Z,84
2017-06-03T02:48:36.847Z,84
2017-06-03T02:49:37.577Z,85
2017-06-03T02:50:38.305Z,84
2017-06-03T02:51:39.036Z,85
2017-06-03T02:52:40.039Z,84
2017-06-03T02:53:40.769Z,84
2017-06-03T02:54:41.521Z,84
2017-06-03T02:55:42.248Z,84
2017-06-03T02:56:42.976Z,84
2017-06-03T02:57:43.952Z,84
2017-06-03T02:58:44.681Z,84
2017-06-03T02:59:45.413Z,84
2017-06-03T03:00:46.148Z,84
2017-06-03T03:01:46.872Z,84
2017-06-03T03:02:47.854Z,84
2017-06-03T03:03:48.581Z,84
2017-06-03T03:04:49.310Z,84
2017-06-03T03:05:50.038Z,84
2017-06-03T03:06:50.770Z,83
2017-06-03T03:07:51.749Z,83
2017-06-03T03:08:52.480Z,84
2017-06-03T03:09:53.206Z,84
2017-06-03T03:10:53.937Z,84
2017-06-03T03:11:54.664Z,84
2017-06-03T03:12:55.644Z,84
2017-06-03T03:13:56.372Z,84
2017-06-03T03:14:57.104Z,85
2017-06-03T03:15:57.831Z,85
2017-06-03T03:16:58.563Z,84
2017-06-03T03:17:59.544Z,84
2017-06-03T03:19:00.270Z,84
2017-06-03T03:20:01.003Z,84
2017-06-03T03:21:01.728Z,84
2017-06-03T03:22:02.460Z,84
2017-06-03T03:23:03.440Z,85
2017-06-03T03:24:04.170Z,85
2017-06-03T03:25:04.897Z,84
2017-06-03T03:26:05.631Z,84
2017-06-03T03:27:06.383Z,85
2017-06-03T03:28:07.362Z,84
2017-06-03T03:29:08.118Z,84
2017-06-03T03:30:08.846Z,84
2017-06-03T03:31:09.575Z,85
2017-06-03T03:32:10.307Z,86
2017-06-03T03:33:11.334Z,85
2017-06-03T03:34:12.063Z,85
2017-06-03T03:35:12.793Z,85
2017-06-03T03:36:13.525Z,85
2017-06-03T03:37:14.254Z,85
2017-06-03T03:38:15.238Z,85
2017-06-03T03:39:15.968Z,85
2017-06-03T03:40:16.697Z,85
2017-06-03T03:41:17.425Z,85
2017-06-03T03:42:18.157Z,85
2017-06-03T03:43:19.143Z,85
2017-06-03T03:44:19.866Z,85
2017-06-03T03:45:20.598Z,85
2017-06-03T03:46:21.329Z,85
2017-06-03T03:47:22.059Z,85
2017-06-03T03:48:23.037Z,85
2017-06-03T03:49:23.767Z,85
2017-06-03T03:50:24.495Z,85
2017-06-03T03:51:25.227Z,85
2017-06-03T03:52:25.955Z,86
2017-06-03T03:53:26.935Z,85
2017-06-03T03:54:27.666Z,85
2017-06-03T03:55:28.398Z,85
2017-06-03T03:56:29.128Z,85
2017-06-03T03:57:29.856Z,85
2017-06-03T03:58:30.838Z,85
2017-06-03T03:59:31.564Z,85
2017-06-03T04:00:32.298Z,85
2017-06-03T04:01:33.026Z,85
2017-06-03T04:02:33.755Z,85
2017-06-03T04:03:34.759Z,85
2017-06-03T04:04:35.488Z,85
2017-06-03T04:05:36.221Z,85
2017-06-03T04:06:36.949Z,85
2017-06-03T04:07:37.679Z,85
2017-06-03T04:08:38.663Z,85
2017-06-03T04:09:39.396Z,85
2017-06-03T04:10:40.156Z,85
2017-06-03T04:11:40.884Z,85
2017-06-03T04:12:41.614Z,85
2017-06-03T04:13:42.598Z,85
2017-06-03T04:14:43.327Z,85
2017-06-03T04:15:44.058Z,86
2017-06-03T04:16:44.793Z,86
2017-06-03T04:17:45.522Z,86
2017-06-03T04:18:46.506Z,87
2017-06-03T04:19:47.238Z,86
2017-06-03T04:20:47.969Z,86
2017-06-03T04:21:48.700Z,86
2017-06-03T04:22:49.435Z,86
2017-06-03T04:23:50.415Z,86
2017-06-03T04:24:51.146Z,86
2017-06-03T04:25:51.875Z,86
2017-06-03T04:26:52.607Z,86
2017-06-03T04:27:53.338Z,86
2017-06-03T04:28:54.319Z,87
2017-06-03T04:29:55.074Z,87
2017-06-03T04:30:55.805Z,87
2017-06-03T04:31:56.535Z,88
2017-06-03T04:32:57.268Z,86
2017-06-03T04:33:58.249Z,87
2017-06-03T04:34:58.980Z,87
2017-06-03T04:35:59.713Z,87
2017-06-03T04:37:00.443Z,87
2017-06-03T04:38:01.173Z,87
2017-06-03T04:39:02.179Z,87
2017-06-03T04:40:02.909Z,87
2017-06-03T04:41:03.642Z,87
2017-06-03T04:42:04.376Z,87
2017-06-03T04:43:05.103Z,88
2017-06-03T04:44:06.137Z,88
2017-06-03T04:45:06.899Z,88
2017-06-03T04:46:07.632Z,88
2017-06-03T04:47:08.362Z,88
2017-06-03T04:48:09.094Z,88
2017-06-03T04:49:10.076Z,88
2017-06-03T04:50:10.805Z,89
2017-06-03T04:51:11.534Z,88
2017-06-03T04:52:12.267Z,88
2017-06-03T04:53:12.999Z,89
2017-06-03T04:54:13.979Z,89
2017-06-03T04:55:14.711Z,89
2017-06-03T04:56:15.457Z,90
2017-06-03T04:57:16.189Z,90
2017-06-03T04:58:16.942Z,90
2017-06-03T04:59:17.946Z,90
2017-06-03T05:00:18.700Z,90
2017-06-03T05:01:19.431Z,90
2017-06-03T05:02:20.164Z,90
2017-06-03T05:03:20.893Z,91
2017-06-03T05:04:21.875Z,91
2017-06-03T05:05:22.620Z,91
2017-06-03T05:06:23.350Z,91
2017-06-03T05:07:24.107Z,90
2017-06-03T05:08:24.840Z,90
2017-06-03T05:09:25.847Z,89
2017-06-03T05:10:26.577Z,90
2017-06-03T05:11:27.311Z,91
2017-06-03T05:12:28.041Z,90
2017-06-03T05:13:28.800Z,90
2017-06-03T05:14:29.783Z,90
2017-06-03T05:15:30.516Z,91
2017-06-03T05:16:31.245Z,90
2017-06-03T05:17:31.980Z,91
2017-06-03T05:18:32.711Z,91
2017-06-03T05:19:33.695Z,92
2017-06-03T05:20:34.428Z,91
2017-06-03T05:21:35.160Z,91
2017-06-03T05:22:35.892Z,92
2017-06-03T05:23:36.625Z,92
2017-06-03T05:24:37.609Z,92
2017-06-03T05:25:38.340Z,91
2017-06-03T05:26:39.073Z,91
2017-06-03T05:27:39.804Z,92
2017-06-03T05:28:40.536Z,92
2017-06-03T05:29:41.522Z,91
2017-06-03T05:30:42.255Z,91
2017-06-03T05:31:42.986Z,91
2017-06-03T05:32:43.721Z,91
2017-06-03T05:33:44.457Z,91
2017-06-03T05:34:45.439Z,91
2017-06-03T05:35:46.194Z,91
2017-06-03T05:36:46.931Z,91
2017-06-03T05:37:47.661Z,91
2017-06-03T05:38:48.390Z,92
2017-06-03T05:39:49.375Z,92
2017-06-03T05:40:50.104Z,91
2017-06-03T05:41:50.835Z,92
2017-06-03T05:42:51.572Z,91
2017-06-03T05:43:52.302Z,92
2017-06-03T05:44:53.312Z,92
2017-06-03T05:45:54.043Z,92
2017-06-03T05:46:54.776Z,92
2017-06-03T05:47:55.532Z,91
2017-06-03T05:48:56.288Z,92
2017-06-03T05:49:57.270Z,93
2017-06-03T05:50:58.006Z,91
2017-06-03T05:51:58.736Z,91
2017-06-03T05:52:59.471Z,90
2017-06-03T05:54:00.204Z,90
2017-06-03T05:55:01.214Z,91
2017-06-03T05:56:01.947Z,91
2017-06-03T05:57:02.687Z,91
2017-06-03T05:58:03.446Z,92
2017-06-03T05:59:04.204Z,90
2017-06-03T06:00:05.212Z,90
2017-06-03T06:01:05.946Z,91
2017-06-03T06:02:06.680Z,91
2017-06-03T06:03:07.415Z,91
2017-06-03T06:04:08.148Z,90
2017-06-03T06:05:09.131Z,90
2017-06-03T06:06:09.886Z,90
2017-06-03T06:07:10.624Z,90
2017-06-03T06:08:11.356Z,89
2017-06-03T06:09:12.092Z,90
2017-06-03T06:10:13.074Z,90
2017-06-03T06:11:13.812Z,89
2017-06-03T06:12:14.545Z,89
2017-06-03T06:13:15.303Z,90
2017-06-03T06:14:16.033Z,90
2017-06-03T06:15:17.018Z,90
2017-06-03T06:16:17.775Z,90
2017-06-03T06:17:18.507Z,89
2017-06-03T06:18:19.239Z,90
2017-06-03T06:19:19.972Z,90
2017-06-03T06:20:21.005Z,90
2017-06-03T06:21:21.736Z,90
2017-06-03T06:22:22.473Z,90
2017-06-03T06:23:23.207Z,90
2017-06-03T06:24:23.942Z,90
2017-06-03T06:25:24.923Z,90
2017-06-03T06:26:25.681Z,89
2017-06-03T06:27:26.433Z,88
2017-06-03T06:28:27.168Z,89
2017-06-03T06:29:27.901Z,89
2017-06-03T06:30:28.885Z,90
2017-06-03T06:31:29.620Z,90
2017-06-03T06:32:30.357Z,90
2017-06-03T06:33:31.093Z,88
2017-06-03T06:34:31.823Z,88
2017-06-03T06:35:32.831Z,89
2017-06-03T06:36:33.567Z,88
2017-06-03T06:37:34.303Z,87
2017-06-03T06:38:35.037Z,87
2017-06-03T06:39:35.773Z,88
2017-06-03T06:40:36.755Z,87
2017-06-03T06:41:37.490Z,88
2017-06-03T06:42:38.222Z,88
2017-06-03T06:43:38.957Z,88
2017-06-03T06:44:39.692Z,88
2017-06-03T06:45:40.681Z,88
2017-06-03T06:46:41.411Z,88
2017-06-03T06:47:42.150Z,89
2017-06-03T06:48:42.883Z,87
2017-06-03T06:49:43.618Z,87
2017-06-03T06:50:44.605Z,87
2017-06-03T06:51:45.338Z,87
2017-06-03T06:52:46.075Z,86
2017-06-03T06:53:46.808Z,87
2017-06-03T06:54:47.542Z,87
2017-06-03T06:55:48.529Z,87
2017-06-03T06:56:49.266Z,86
2017-06-03T06:57:50.000Z,86
2017-06-03T06:58:50.736Z,86
2017-06-03T06:59:51.494Z,86
2017-06-03T07:00:52.482Z,85
2017-06-03T07:01:53.212Z,85
2017-06-03T07:02:53.949Z,86
2017-06-03T07:03:54.727Z,86
2017-06-03T07:04:55.459Z,86
2017-06-03T07:05:56.443Z,86
2017-06-03T07:06:57.178Z,85
2017-06-03T07:07:57.914Z,86
2017-06-03T07:08:58.653Z,85
2017-06-03T07:09:59.386Z,85
2017-06-03T07:11:00.370Z,85
2017-06-03T07:12:01.146Z,84
2017-06-03T07:13:01.879Z,85
2017-06-03T07:14:02.615Z,85
2017-06-03T07:15:03.374Z,84
2017-06-03T07:16:04.359Z,85
2017-06-03T07:17:05.091Z,85
2017-06-03T07:18:05.847Z,85
2017-06-03T07:19:06.638Z,85
2017-06-03T07:20:07.375Z,84
2017-06-03T07:21:08.361Z,84
2017-06-03T07:22:09.094Z,85
2017-06-03T07:23:09.827Z,85
2017-06-03T07:24:10.564Z,85
2017-06-03T07:25:11.297Z,85
2017-06-03T07:26:12.285Z,84
2017-06-03T07:27:13.018Z,84
2017-06-03T07:28:13.752Z,84
2017-06-03T07:29:14.486Z,85
2017-06-03T07:30:15.219Z,85
2017-06-03T07:31:16.296Z,85
2017-06-03T07:32:17.032Z,85
2017-06-03T07:33:17.787Z,85
2017-06-03T07:34:18.522Z,86
2017-06-03T07:35:19.254Z,86
2017-06-03T07:36:20.236Z,86
2017-06-03T07:37:20.971Z,86
2017-06-03T07:38:21.704Z,86
2017-06-03T07:39:22.441Z,85
2017-06-03T07:40:23.170Z,84
2017-06-03T07:41:24.178Z,83
2017-06-03T07:42:24.910Z,84
2017-06-03T07:43:25.647Z,84
2017-06-03T07:44:26.378Z,83
2017-06-03T07:45:27.137Z,84
2017-06-03T07:46:28.121Z,83
2017-06-03T07:47:28.855Z,83
2017-06-03T07:48:29.592Z,82
2017-06-03T07:49:30.324Z,77
2017-06-03T07:50:31.058Z,79
2017-06-03T07:51:32.092Z,78
2017-06-03T07:52:32.826Z,79
2017-06-03T07:53:33.561Z,79
2017-06-03T07:54:34.297Z,79
2017-06-03T07:55:35.033Z,77
2017-06-03T07:56:36.042Z,78
2017-06-03T07:57:36.776Z,78
2017-06-03T07:58:37.512Z,76
2017-06-03T07:59:38.247Z,76
2017-06-03T08:00:39.006Z,75
2017-06-03T08:01:39.993Z,76
2017-06-03T08:02:40.727Z,76
2017-06-03T08:03:41.463Z,76
2017-06-03T08:04:42.198Z,76
2017-06-03T08:05:42.935Z,76
2017-06-03T08:06:43.920Z,73
2017-06-03T08:07:44.658Z,74
2017-06-03T08:08:45.395Z,72
2017-06-03T08:09:46.133Z,72
2017-06-03T08:10:46.874Z,72
2017-06-03T08:11:47.859Z,73
2017-06-03T08:12:48.595Z,73
2017-06-03T08:13:49.332Z,72
2017-06-03T08:14:50.067Z,72
2017-06-03T08:15:50.805Z,71
2017-06-03T08:16:51.795Z,70
2017-06-03T08:17:52.532Z,69
2017-06-03T08:18:53.269Z,65
2017-06-03T08:19:54.012Z,65
2017-06-03T08:20:54.745Z,63
2017-06-03T08:21:55.732Z,63
2017-06-03T08:22:56.470Z,64
2017-06-03T08:23:57.207Z,64
2017-06-03T08:24:57.947Z,65
2017-06-03T08:25:58.687Z,67
2017-06-03T08:26:59.727Z,67
2017-06-03T08:28:00.468Z,68
2017-06-03T08:29:01.212Z,69
2017-06-03T08:30:01.945Z,68
2017-06-03T08:31:02.683Z,68
2017-06-03T08:32:03.696Z,68
2017-06-03T08:33:04.435Z,68
2017-06-03T08:34:05.175Z,68
2017-06-03T08:35:05.915Z,67
2017-06-03T08:36:06.658Z,67
2017-06-03T08:37:07.675Z,67
2017-06-03T08:38:08.412Z,67
2017-06-03T08:39:09.157Z,67
2017-06-03T08:40:09.899Z,67
2017-06-03T08:41:10.639Z,67
2017-06-03T08:42:11.630Z,65
2017-06-03T08:43:12.375Z,66
2017-06-03T08:44:13.116Z,65
2017-06-03T08:45:13.859Z,65
2017-06-03T08:46:14.603Z,66
2017-06-03T08:47:15.600Z,65
2017-06-03T08:48:16.362Z,64
2017-06-03T08:49:17.108Z,63
2017-06-03T08:50:17.854Z,61
2017-06-03T08:51:18.601Z,61
2017-06-03T08:52:19.619Z,60
2017-06-03T08:53:20.393Z,59
2017-06-03T08:54:21.161Z,58
2017-06-03T08:55:21.906Z,59
2017-06-03T08:56:22.676Z,60
2017-06-03T08:57:23.666Z,61
2017-06-03T08:58:24.409Z,61
2017-06-03T08:59:25.150Z,62
2017-06-03T09:00:25.892Z,62
2017-06-03T09:01:26.636Z,62
2017-06-03T09:02:27.631Z,61
2017-06-03T09:03:28.375Z,61
2017-06-03T09:04:29.120Z,59
2017-06-03T09:05:29.865Z,59
2017-06-03T09:06:30.610Z,57
2017-06-03T09:07:31.607Z,56
2017-06-03T09:08:32.349Z,56
2017-06-03T09:09:33.094Z,57
2017-06-03T09:10:33.839Z,56
2017-06-03T09:11:34.587Z,54
2017-06-03T09:12:35.583Z,55
2017-06-03T09:13:36.329Z,56
2017-06-03T09:14:37.074Z,56
2017-06-03T09:15:37.818Z,55
2017-06-03T09:16:38.565Z,54
2017-06-03T09:17:39.562Z,54
2017-06-03T09:18:40.310Z,53
2017-06-03T09:19:41.055Z,53
2017-06-03T09:20:41.801Z,53
2017-06-03T09:21:42.547Z,53
2017-06-03T09:22:43.548Z,52
2017-06-03T09:23:44.293Z,50
2017-06-03T09:24:45.042Z,51
2017-06-03T09:25:45.812Z,50
2017-06-03T09:26:46.559Z,49
2017-06-03T09:27:47.557Z,49
2017-06-03T09:28:48.309Z,47
2017-06-03T09:29:49.058Z,48
2017-06-03T09:30:49.810Z,48
2017-06-03T09:31:50.564Z,47
2017-06-03T09:32:51.561Z,47
2017-06-03T09:33:52.313Z,47
2017-06-03T09:34:53.066Z,47
2017-06-03T09:35:53.820Z,47
2017-06-03T09:36:54.577Z,46
2017-06-03T09:37:55.605Z,46
2017-06-03T09:38:56.360Z,46
2017-06-03T09:39:57.137Z,46
2017-06-03T09:40:57.890Z,45
2017-06-03T09:41:58.645Z,44
2017-06-03T09:42:59.653Z,44
2017-06-03T09:44:00.409Z,45
2017-06-03T09:45:01.169Z,46
2017-06-03T09:46:01.923Z,45
2017-06-03T09:47:02.683Z,43
2017-06-03T09:48:03.697Z,43
2017-06-03T09:49:04.450Z,43
2017-06-03T09:50:05.231Z,44
2017-06-03T09:51:05.991Z,44
2017-06-03T09:52:06.744Z,43
2017-06-03T09:53:07.755Z,42
2017-06-03T09:54:08.511Z,41
2017-06-03T09:55:09.266Z,40
2017-06-03T09:56:10.027Z,41
2017-06-03T09:57:10.782Z,42
2017-06-03T09:58:11.786Z,40
2017-06-03T09:59:12.539Z,38
2017-06-03T10:00:13.293Z,38
2017-06-03T10:01:14.052Z,37
2017-06-03T10:02:14.835Z,38
2017-06-03T10:03:15.843Z,38
2017-06-03T10:04:16.601Z,39
2017-06-03T10:05:17.356Z,40
2017-06-03T10:06:18.140Z,42
2017-06-03T10:07:18.900Z,41
2017-06-03T10:08:19.904Z,42
2017-06-03T10:09:20.656Z,40
2017-06-03T10:10:21.409Z,39
2017-06-03T10:11:22.161Z,39
2017-06-03T10:12:22.920Z,40
2017-06-03T10:13:23.952Z,42
2017-06-03T10:14:24.710Z,42
2017-06-03T10:15:25.466Z,41
2017-06-03T10:16:26.223Z,41
2017-06-03T10:17:26.985Z,41
2017-06-03T10:18:28.014Z,40
2017-06-03T10:19:28.771Z,39
2017-06-03T10:20:29.521Z,40
2017-06-03T10:21:30.270Z,40
2017-06-03T10:22:31.019Z,39
2017-06-03T10:23:32.028Z,40
2017-06-03T10:24:32.784Z,43
2017-06-03T10:25:33.535Z,43
2017-06-03T10:26:34.286Z,42
2017-06-03T10:27:35.042Z,41
2017-06-03T10:28:36.047Z,41
2017-06-03T10:29:36.805Z,41
2017-06-03T10:30:37.556Z,41
2017-06-03T10:31:38.308Z,41
2017-06-03T10:32:39.062Z,42
2017-06-03T10:33:40.063Z,42
2017-06-03T10:34:40.821Z,42
2017-06-03T10:35:41.570Z,42
2017-06-03T10:36:42.327Z,42
2017-06-03T10:37:43.083Z,41
2017-06-03T10:38:44.088Z,41
2017-06-03T10:39:44.843Z,40
2017-06-03T10:40:45.616Z,39
2017-06-03T10:41:46.370Z,39
2017-06-03T10:42:47.124Z,38
2017-06-03T10:43:48.129Z,39
2017-06-03T10:44:48.886Z,38
2017-06-03T10:45:49.644Z,38
2017-06-03T10:46:50.398Z,38
2017-06-03T10:47:51.160Z,38
2017-06-03T10:48:52.159Z,39
2017-06-03T10:49:52.916Z,39
2017-06-03T10:50:53.672Z,38
2017-06-03T10:51:54.435Z,37
2017-06-03T10:52:55.186Z,38
2017-06-03T10:53:56.191Z,39
2017-06-03T10:54:56.974Z,38
2017-06-03T10:55:57.726Z,37
2017-06-03T10:56:58.482Z,38
2017-06-03T10:57:59.234Z,38
2017-06-03T10:59:00.261Z,38
2017-06-03T11:00:01.015Z,38
2017-06-03T11:01:01.771Z,38
2017-06-03T11:02:02.525Z,38
2017-06-03T11:03:03.277Z,37
2017-06-03T11:04:04.275Z,36
2017-06-03T11:05:05.031Z,36
2017-06-03T11:06:05.778Z,36
2017-06-03T11:07:06.553Z,36
2017-06-03T11:08:07.307Z,37
2017-06-03T11:09:08.310Z,35
2017-06-03T11:10:09.083Z,35
2017-06-03T11:11:09.833Z,35
2017-06-03T11:12:10.585Z,34
2017-06-03T11:13:11.339Z,35
2017-06-03T11:14:12.370Z,34
2017-06-03T11:15:13.125Z,33
2017-06-03T11:16:13.877Z,32
2017-06-03T11:17:14.632Z,34
2017-06-03T11:18:15.410Z,34
2017-06-03T11:19:16.416Z,33
2017-06-03T11:20:17.190Z,34
2017-06-03T11:21:17.942Z,34
2017-06-03T11:22:18.695Z,34
2017-06-03T11:23:19.448Z,35
2017-06-03T11:24:20.448Z,35
2017-06-03T11:25:21.202Z,35
2017-06-03T11:26:21.955Z,35
2017-06-03T11:27:22.730Z,33
2017-06-03T11:28:23.487Z,33
2017-06-03T11:29:24.490Z,33
2017-06-03T11:30:25.241Z,33
2017-06-03T11:31:25.993Z,34
2017-06-03T11:32:26.744Z,33
2017-06-03T11:33:27.518Z,33
2017-06-03T11:34:28.523Z,34
2017-06-03T11:35:29.280Z,35
2017-06-03T11:36:30.046Z,35
2017-06-03T11:37:30.825Z,35
2017-06-03T11:38:31.579Z,34
2017-06-03T11:39:32.581Z,34
2017-06-03T11:40:33.335Z,33
2017-06-03T11:41:34.082Z,32
2017-06-03T11:42:34.840Z,31
2017-06-03T11:43:35.595Z,33
2017-06-03T11:44:36.604Z,33
2017-06-03T11:45:37.356Z,32
2017-06-03T11:46:38.109Z,33
2017-06-03T11:47:38.865Z,32
2017-06-03T11:48:39.642Z,31
2017-06-03T11:49:40.647Z,31
2017-06-03T11:50:41.399Z,30
2017-06-03T11:51:42.150Z,31
2017-06-03T11:52:42.905Z,32
2017-06-03T11:53:43.660Z,31
2017-06-03T11:54:44.661Z,31
2017-06-03T11:55:45.438Z,31
2017-06-03T11:56:46.199Z,30
2017-06-03T11:57:46.947Z,30
2017-06-03T11:58:47.702Z,30
2017-06-03T11:59:48.757Z,31
2017-06-03T12:00:49.507Z,30
2017-06-03T12:01:50.264Z,31
2017-06-03T12:02:51.012Z,33
2017-06-03T12:03:51.766Z,34
2017-06-03T12:04:52.768Z,35
2017-06-03T12:05:53.524Z,37
2017-06-03T12:06:54.277Z,37
2017-06-03T12:07:55.027Z,37
2017-06-03T12:08:55.776Z,37
2017-06-03T12:09:56.779Z,36
2017-06-03T12:10:57.532Z,36
2017-06-03T12:11:58.284Z,37
2017-06-03T12:12:59.034Z,36
2017-06-03T12:13:59.782Z,36
2017-06-03T12:15:00.782Z,35
2017-06-03T12:16:01.530Z,35
2017-06-03T12:17:02.275Z,34
2017-06-03T12:18:03.021Z,34
2017-06-03T12:19:03.768Z,34
2017-06-03T12:20:04.814Z,34
2017-06-03T12:21:05.559Z,34
2017-06-03T12:22:06.310Z,33
2017-06-03T12:23:07.063Z,33
2017-06-03T12:24:07.817Z,33
2017-06-03T12:25:08.819Z,32
2017-06-03T12:26:09.570Z,32
2017-06-03T12:27:10.325Z,31
2017-06-03T12:28:11.084Z,31
2017-06-03T12:29:11.836Z,31
2017-06-03T12:30:12.838Z,30
2017-06-03T12:31:13.590Z,30
2017-06-03T12:32:14.346Z,29
2017-06-03T12:33:15.099Z,30
2017-06-03T12:34:15.855Z,30
2017-06-03T12:35:16.864Z,30
2017-06-03T12:36:17.610Z,29
2017-06-03T12:37:18.364Z,29
2017-06-03T12:38:19.112Z,30
2017-06-03T12:39:19.863Z,30
2017-06-03T12:40:20.892Z,31
2017-06-03T12:41:21.645Z,32
2017-06-03T12:42:22.429Z,33
2017-06-03T12:43:23.173Z,33
2017-06-03T12:44:23.924Z,32
2017-06-03T12:45:24.950Z,31
2017-06-03T12:46:25.722Z,31
2017-06-03T12:47:26.467Z,31
2017-06-03T12:48:27.217Z,32
2017-06-03T12:49:27.967Z,33
2017-06-03T12:50:28.966Z,33
2017-06-03T12:51:29.710Z,33
2017-06-03T12:52:30.452Z,33
2017-06-03T12:53:31.199Z,35
2017-06-03T12:54:31.943Z,36
2017-06-03T12:55:32.988Z,36
2017-06-03T12:56:33.732Z,36
2017-06-03T12:57:34.474Z,37
2017-06-03T12:58:35.214Z,37
2017-06-03T12:59:35.957Z,37
2017-06-03T13:00:36.953Z,37
2017-06-03T13:01:37.694Z,35
2017-06-03T13:02:38.437Z,35
2017-06-03T13:03:39.177Z,35
2017-06-03T13:04:39.923Z,35
2017-06-03T13:05:40.915Z,35
2017-06-03T13:06:41.676Z,36
2017-06-03T13:07:42.420Z,36
2017-06-03T13:08:43.159Z,35
2017-06-03T13:09:43.901Z,34
2017-06-03T13:10:44.891Z,35
2017-06-03T13:11:45.631Z,35
2017-06-03T13:12:46.397Z,34
2017-06-03T13:13:47.137Z,34
2017-06-03T13:14:47.876Z,34
2017-06-03T13:15:48.873Z,35
2017-06-03T13:16:49.608Z,35
2017-06-03T13:17:50.347Z,35
2017-06-03T13:18:51.091Z,34
2017-06-03T13:19:51.832Z,35
2017-06-03T13:20:52.826Z,35
2017-06-03T13:21:53.564Z,35
2017-06-03T13:22:54.306Z,36
2017-06-03T13:23:55.048Z,35
2017-06-03T13:24:55.790Z,36
2017-06-03T13:25:56.776Z,36
2017-06-03T13:26:57.517Z,36
2017-06-03T13:27:58.262Z,36
2017-06-03T13:28:59.002Z,36
2017-06-03T13:29:59.743Z,36
2017-06-03T13:31:00.734Z,36
2017-06-03T13:32:01.478Z,35
2017-06-03T13:33:02.214Z,36
2017-06-03T13:34:02.978Z,36
2017-06-03T13:35:03.719Z,36
2017-06-03T13:36:04.713Z,36
2017-06-03T13:37:05.450Z,35
2017-06-03T13:38:06.192Z,35
2017-06-03T13:39:06.931Z,34
2017-06-03T13:40:07.674Z,35
2017-06-03T13:41:08.665Z,35
2017-06-03T13:42:09.407Z,34
2017-06-03T13:43:10.176Z,34
2017-06-03T13:44:10.918Z,35
2017-06-03T13:45:11.658Z,35
2017-06-03T13:46:12.650Z,33
2017-06-03T13:47:13.393Z,32
2017-06-03T13:48:14.137Z,32
2017-06-03T13:49:14.882Z,32
2017-06-03T13:50:15.625Z,33
2017-06-03T13:51:16.620Z,32
2017-06-03T13:52:17.364Z,31
2017-06-03T13:53:18.108Z,32
2017-06-03T13:54:18.870Z,31
2017-06-03T13:55:19.618Z,31
2017-06-03T13:56:20.602Z,31
2017-06-03T13:57:21.343Z,31
2017-06-03T13:58:22.083Z,31
2017-06-03T13:59:22.820Z,31
2017-06-03T14:00:23.561Z,31
2017-06-03T14:01:24.554Z,31
2017-06-03T14:02:25.292Z,32
2017-06-03T14:03:26.033Z,32
2017-06-03T14:04:26.778Z,32
2017-06-03T14:05:27.516Z,33
2017-06-03T14:06:28.504Z,33
2017-06-03T14:07:29.248Z,33
2017-06-03T14:08:29.987Z,34
2017-06-03T14:09:30.725Z,35
2017-06-03T14:10:31.465Z,35
2017-06-03T14:11:32.454Z,35
2017-06-03T14:12:33.193Z,35
2017-06-03T14:13:33.936Z,35
2017-06-03T14:14:34.674Z,35
2017-06-03T14:15:35.437Z,35
2017-06-03T14:16:36.427Z,36
2017-06-03T14:17:37.168Z,37
2017-06-03T14:18:37.933Z,37
2017-06-03T14:19:38.671Z,37
2017-06-03T14:20:39.410Z,37
2017-06-03T14:21:40.401Z,37
2017-06-03T14:22:41.139Z,37
2017-06-03T14:23:41.880Z,36
2017-06-03T14:24:42.617Z,37
2017-06-03T14:25:43.358Z,37
2017-06-03T14:26:44.350Z,37